This is the latest recevied weather packets stored in our database for station/object DC4AT. If no packets are shown the sender has not sent any weather packets the latest 10 day(s).
| Time | Temp. | Humidity | Pressure | Rain* | Wind** | Luminosity | Snow |
|---|---|---|---|---|---|---|---|
| 1777752822 | 17.78° C | 58% | 1015.3 hPa | 0 mm | - | 0 W/m² | - |
| 1777752222 | 18.33° C | 56% | 1015.3 hPa | 0 mm | - | 0 W/m² | - |
| 1777751622 | 18.33° C | 54% | 1015.3 hPa | 0 mm | - | 0 W/m² | - |
| 1777751022 | 18.33° C | 52% | 1015.3 hPa | 0 mm | - | 0 W/m² | - |
| 1777750422 | 17.78° C | 53% | 1015.3 hPa | 0 mm | - | 0 W/m² | - |
| 1777749822 | 18.33° C | 52% | 1015.2 hPa | 0 mm | - | 0 W/m² | - |
| 1777749222 | 18.33° C | 50% | 1015.2 hPa | 0 mm | - | 0 W/m² | - |
| 1777748622 | 18.89° C | 50% | 1015.2 hPa | 0 mm | - | 0 W/m² | - |
| 1777748022 | 18.89° C | 50% | 1015.2 hPa | 0 mm | - | 0 W/m² | - |
| 1777747422 | 18.89° C | 50% | 1015.1 hPa | 0 mm | - | 0 W/m² | - |
| 1777746822 | 19.44° C | 50% | 1015.2 hPa | 0 mm | - | 9 W/m² | - |
| 1777746222 | 19.44° C | 51% | 1015.1 hPa | 0 mm | - | 14 W/m² | - |
| 1777745622 | 20° C | 51% | 1015.1 hPa | 0 mm | - | 28 W/m² | - |
| 1777745022 | 20.56° C | 51% | 1015.1 hPa | 0 mm | - | 53 W/m² | - |
| 1777744422 | 21.11° C | 52% | 1015.2 hPa | 0 mm | - | 51 W/m² | - |
| 1777743822 | 22.22° C | 49% | 1015.2 hPa | 0 mm | - | 79 W/m² | - |
| 1777743222 | 22.78° C | 47% | 1015.1 hPa | 0 mm | - | 70 W/m² | - |
| 1777742622 | 23.33° C | 45% | 1015.3 hPa | 0 mm | - | 120 W/m² | - |
| 1777742022 | 23.89° C | 42% | 1015.3 hPa | 0 mm | - | 141 W/m² | - |
| 1777741422 | 24.44° C | 38% | 1015.4 hPa | 0 mm | - | 134 W/m² | - |
| 1777740822 | 25° C | 35% | 1015.4 hPa | 0 mm | - | 137 W/m² | - |
| 1777740222 | 25° C | 38% | 1015.6 hPa | 0 mm | - | 139 W/m² | - |
| 1777739622 | 25° C | 33% | 1015.6 hPa | 0 mm | - | 158 W/m² | - |
| 1777739022 | 25° C | 30% | 1015.8 hPa | 0 mm | - | 211 W/m² | - |
| 1777738422 | 25° C | 32% | 1016 hPa | 0 mm | - | 250 W/m² | - |
* Rain latest hour (hover to see other rain measurements)
** Current wind speed in m/s (hover to see current wind gust speed)